sensor_id;sensor_type;location;lat;lon;timestamp;temperature;humidity
41324;DHT22;27073;51.128;4.220;2022-10-17T00:00:42;17.50;99.90
41324;DHT22;27073;51.128;4.220;2022-10-17T00:03:08;17.50;99.90
41324;DHT22;27073;51.128;4.220;2022-10-17T00:05:38;17.50;99.90
41324;DHT22;27073;51.128;4.220;2022-10-17T00:08:04;17.10;99.90
41324;DHT22;27073;51.128;4.220;2022-10-17T00:10:30;17.10;99.90
41324;DHT22;27073;51.128;4.220;2022-10-17T00:12:55;17.20;99.90
41324;DHT22;27073;51.128;4.220;2022-10-17T00:15:21;17.30;99.90
41324;DHT22;27073;51.128;4.220;2022-10-17T00:17:47;17.00;99.90
41324;DHT22;27073;51.128;4.220;2022-10-17T00:20:13;17.10;99.90
41324;DHT22;27073;51.128;4.220;2022-10-17T00:22:39;17.00;99.90
41324;DHT22;27073;51.128;4.220;2022-10-17T00:25:05;16.90;99.90
41324;DHT22;27073;51.128;4.220;2022-10-17T00:27:34;17.00;99.90
41324;DHT22;27073;51.128;4.220;2022-10-17T00:30:00;17.10;99.90
41324;DHT22;27073;51.128;4.220;2022-10-17T00:32:26;17.20;99.90
41324;DHT22;27073;51.128;4.220;2022-10-17T00:34:52;17.10;99.90
41324;DHT22;27073;51.128;4.220;2022-10-17T00:37:17;17.20;99.90
41324;DHT22;27073;51.128;4.220;2022-10-17T00:39:43;17.20;99.90
41324;DHT22;27073;51.128;4.220;2022-10-17T00:42:11;17.30;99.90
41324;DHT22;27073;51.128;4.220;2022-10-17T00:47:12;17.30;99.90
41324;DHT22;27073;51.128;4.220;2022-10-17T00:49:39;17.30;99.90
41324;DHT22;27073;51.128;4.220;2022-10-17T00:52:08;17.30;99.90
41324;DHT22;27073;51.128;4.220;2022-10-17T00:54:43;17.50;99.90
41324;DHT22;27073;51.128;4.220;2022-10-17T00:57:10;17.50;99.90
41324;DHT22;27073;51.128;4.220;2022-10-17T00:59:37;17.50;99.90
41324;DHT22;27073;51.128;4.220;2022-10-17T01:02:09;17.50;99.90
41324;DHT22;27073;51.128;4.220;2022-10-17T01:04:36;17.50;99.90
41324;DHT22;27073;51.128;4.220;2022-10-17T01:07:03;17.50;99.90
41324;DHT22;27073;51.128;4.220;2022-10-17T01:09:29;17.50;99.90
41324;DHT22;27073;51.128;4.220;2022-10-17T01:12:19;17.50;99.90
41324;DHT22;27073;51.128;4.220;2022-10-17T01:17:39;17.40;99.90
41324;DHT22;27073;51.128;4.220;2022-10-17T01:31:03;17.30;99.90
41324;DHT22;27073;51.128;4.220;2022-10-17T01:34:01;17.30;99.90
41324;DHT22;27073;51.128;4.220;2022-10-17T01:36:44;17.30;99.90
41324;DHT22;27073;51.128;4.220;2022-10-17T01:39:14;17.30;99.90
41324;DHT22;27073;51.128;4.220;2022-10-17T01:41:55;17.30;99.90
41324;DHT22;27073;51.128;4.220;2022-10-17T01:44:32;17.30;99.90
41324;DHT22;27073;51.128;4.220;2022-10-17T01:47:07;17.30;99.90
41324;DHT22;27073;51.128;4.220;2022-10-17T01:49:36;17.30;99.90
41324;DHT22;27073;51.128;4.220;2022-10-17T01:52:11;17.30;99.90
41324;DHT22;27073;51.128;4.220;2022-10-17T01:54:41;17.20;99.90
41324;DHT22;27073;51.128;4.220;2022-10-17T01:57:58;17.20;99.90
41324;DHT22;27073;51.128;4.220;2022-10-17T01:59:58;17.20;99.90
41324;DHT22;27073;51.128;4.220;2022-10-17T02:02:25;17.20;99.90
41324;DHT22;27073;51.128;4.220;2022-10-17T02:04:54;17.20;99.90
41324;DHT22;27073;51.128;4.220;2022-10-17T02:07:21;17.20;99.90
41324;DHT22;27073;51.128;4.220;2022-10-17T02:09:47;17.20;99.90
41324;DHT22;27073;51.128;4.220;2022-10-17T02:23:40;17.20;99.90
41324;DHT22;27073;51.128;4.220;2022-10-17T02:26:24;17.10;99.90
41324;DHT22;27073;51.128;4.220;2022-10-17T02:31:59;17.10;99.90
41324;DHT22;27073;51.128;4.220;2022-10-17T02:34:39;17.10;99.90
41324;DHT22;27073;51.128;4.220;2022-10-17T02:37:07;17.20;99.90
41324;DHT22;27073;51.128;4.220;2022-10-17T02:39:35;17.10;99.90
41324;DHT22;27073;51.128;4.220;2022-10-17T02:42:04;17.10;99.90
41324;DHT22;27073;51.128;4.220;2022-10-17T02:44:31;17.10;99.90
41324;DHT22;27073;51.128;4.220;2022-10-17T02:47:16;17.10;99.90
41324;DHT22;27073;51.128;4.220;2022-10-17T02:49:48;17.10;99.90
41324;DHT22;27073;51.128;4.220;2022-10-17T02:52:21;17.20;99.90
41324;DHT22;27073;51.128;4.220;2022-10-17T02:57:52;17.20;99.90
41324;DHT22;27073;51.128;4.220;2022-10-17T03:00:20;17.20;99.90
41324;DHT22;27073;51.128;4.220;2022-10-17T03:02:49;17.20;99.90
41324;DHT22;27073;51.128;4.220;2022-10-17T03:05:20;17.20;99.90
41324;DHT22;27073;51.128;4.220;2022-10-17T03:07:46;17.20;99.90
41324;DHT22;27073;51.128;4.220;2022-10-17T03:10:12;17.30;99.90
41324;DHT22;27073;51.128;4.220;2022-10-17T03:12:38;17.30;99.90
41324;DHT22;27073;51.128;4.220;2022-10-17T03:15:04;17.30;99.90
41324;DHT22;27073;51.128;4.220;2022-10-17T03:17:30;17.20;99.90
41324;DHT22;27073;51.128;4.220;2022-10-17T03:19:57;17.30;99.90
41324;DHT22;27073;51.128;4.220;2022-10-17T03:22:23;17.10;99.90
41324;DHT22;27073;51.128;4.220;2022-10-17T03:24:49;16.90;99.90
41324;DHT22;27073;51.128;4.220;2022-10-17T03:27:15;17.00;99.90
41324;DHT22;27073;51.128;4.220;2022-10-17T03:29:40;17.10;99.90
41324;DHT22;27073;51.128;4.220;2022-10-17T03:32:08;17.20;99.90
41324;DHT22;27073;51.128;4.220;2022-10-17T03:34:35;17.30;99.90
41324;DHT22;27073;51.128;4.220;2022-10-17T03:37:01;17.40;99.90
41324;DHT22;27073;51.128;4.220;2022-10-17T03:39:28;17.30;99.90
41324;DHT22;27073;51.128;4.220;2022-10-17T03:41:53;17.30;99.90
41324;DHT22;27073;51.128;4.220;2022-10-17T03:44:19;17.30;99.90
41324;DHT22;27073;51.128;4.220;2022-10-17T03:46:45;17.20;99.90
41324;DHT22;27073;51.128;4.220;2022-10-17T03:49:11;17.30;99.90
41324;DHT22;27073;51.128;4.220;2022-10-17T03:51:38;17.30;99.90
41324;DHT22;27073;51.128;4.220;2022-10-17T03:54:09;17.30;99.90
41324;DHT22;27073;51.128;4.220;2022-10-17T03:56:35;17.30;99.90
41324;DHT22;27073;51.128;4.220;2022-10-17T03:59:04;17.50;99.90
41324;DHT22;27073;51.128;4.220;2022-10-17T04:01:33;17.60;99.90
41324;DHT22;27073;51.128;4.220;2022-10-17T04:03:58;17.70;99.90
41324;DHT22;27073;51.128;4.220;2022-10-17T04:06:28;17.60;99.90
41324;DHT22;27073;51.128;4.220;2022-10-17T04:08:54;17.70;99.90
41324;DHT22;27073;51.128;4.220;2022-10-17T04:11:26;17.60;99.90
41324;DHT22;27073;51.128;4.220;2022-10-17T04:13:57;17.60;99.90
41324;DHT22;27073;51.128;4.220;2022-10-17T04:16:25;17.60;99.90
41324;DHT22;27073;51.128;4.220;2022-10-17T04:19:00;17.60;99.90
41324;DHT22;27073;51.128;4.220;2022-10-17T04:21:31;17.70;99.90
41324;DHT22;27073;51.128;4.220;2022-10-17T04:24:03;17.70;99.90
41324;DHT22;27073;51.128;4.220;2022-10-17T04:26:42;17.80;99.90
41324;DHT22;27073;51.128;4.220;2022-10-17T04:29:08;17.80;99.90
41324;DHT22;27073;51.128;4.220;2022-10-17T04:31:34;17.80;99.90
41324;DHT22;27073;51.128;4.220;2022-10-17T04:34:14;17.80;99.90
41324;DHT22;27073;51.128;4.220;2022-10-17T04:36:40;17.80;99.90
41324;DHT22;27073;51.128;4.220;2022-10-17T04:39:06;17.70;99.90
41324;DHT22;27073;51.128;4.220;2022-10-17T04:41:34;17.70;99.90
41324;DHT22;27073;51.128;4.220;2022-10-17T04:44:01;17.70;99.90
41324;DHT22;27073;51.128;4.220;2022-10-17T04:46:29;17.70;99.90
41324;DHT22;27073;51.128;4.220;2022-10-17T04:48:56;17.70;99.90
41324;DHT22;27073;51.128;4.220;2022-10-17T04:51:22;17.70;99.90
41324;DHT22;27073;51.128;4.220;2022-10-17T04:54:08;17.70;99.90
41324;DHT22;27073;51.128;4.220;2022-10-17T04:56:36;17.70;99.90
41324;DHT22;27073;51.128;4.220;2022-10-17T04:59:02;17.70;99.90
41324;DHT22;27073;51.128;4.220;2022-10-17T05:01:27;17.70;99.90
41324;DHT22;27073;51.128;4.220;2022-10-17T05:03:57;17.80;99.90
41324;DHT22;27073;51.128;4.220;2022-10-17T05:06:24;18.00;99.90
41324;DHT22;27073;51.128;4.220;2022-10-17T05:09:22;18.00;99.90
41324;DHT22;27073;51.128;4.220;2022-10-17T05:11:48;18.00;99.90
41324;DHT22;27073;51.128;4.220;2022-10-17T05:14:14;18.00;99.90
41324;DHT22;27073;51.128;4.220;2022-10-17T05:16:40;18.00;99.90
41324;DHT22;27073;51.128;4.220;2022-10-17T05:19:06;18.10;99.90
41324;DHT22;27073;51.128;4.220;2022-10-17T05:21:38;18.30;99.90
41324;DHT22;27073;51.128;4.220;2022-10-17T05:24:06;18.40;99.90
41324;DHT22;27073;51.128;4.220;2022-10-17T05:26:32;18.40;99.90
41324;DHT22;27073;51.128;4.220;2022-10-17T05:28:59;18.40;99.90
41324;DHT22;27073;51.128;4.220;2022-10-17T05:31:28;18.40;99.90
41324;DHT22;27073;51.128;4.220;2022-10-17T05:33:55;18.30;99.90
41324;DHT22;27073;51.128;4.220;2022-10-17T05:36:25;18.20;99.90
41324;DHT22;27073;51.128;4.220;2022-10-17T05:38:52;18.20;99.90
41324;DHT22;27073;51.128;4.220;2022-10-17T05:41:18;18.30;99.90
41324;DHT22;27073;51.128;4.220;2022-10-17T05:43:45;18.40;99.90
41324;DHT22;27073;51.128;4.220;2022-10-17T05:46:16;18.20;99.90
41324;DHT22;27073;51.128;4.220;2022-10-17T05:48:42;18.10;99.90
41324;DHT22;27073;51.128;4.220;2022-10-17T05:51:08;18.10;99.90
41324;DHT22;27073;51.128;4.220;2022-10-17T05:53:38;18.10;99.90
41324;DHT22;27073;51.128;4.220;2022-10-17T05:56:10;18.10;99.90
41324;DHT22;27073;51.128;4.220;2022-10-17T05:58:40;18.10;99.90
41324;DHT22;27073;51.128;4.220;2022-10-17T06:01:09;18.10;99.90
41324;DHT22;27073;51.128;4.220;2022-10-17T06:03:35;18.10;99.90
41324;DHT22;27073;51.128;4.220;2022-10-17T06:06:05;18.30;99.90
41324;DHT22;27073;51.128;4.220;2022-10-17T06:08:32;18.30;99.90
41324;DHT22;27073;51.128;4.220;2022-10-17T06:10:58;18.30;99.90
41324;DHT22;27073;51.128;4.220;2022-10-17T06:13:25;18.30;99.90
41324;DHT22;27073;51.128;4.220;2022-10-17T06:15:52;18.30;99.90
41324;DHT22;27073;51.128;4.220;2022-10-17T06:18:17;18.40;99.90
41324;DHT22;27073;51.128;4.220;2022-10-17T06:20:43;18.30;99.90
41324;DHT22;27073;51.128;4.220;2022-10-17T06:23:09;18.20;99.90
41324;DHT22;27073;51.128;4.220;2022-10-17T06:26:02;18.10;99.90
41324;DHT22;27073;51.128;4.220;2022-10-17T06:28:28;18.00;99.90
41324;DHT22;27073;51.128;4.220;2022-10-17T06:30:56;18.00;99.90
41324;DHT22;27073;51.128;4.220;2022-10-17T06:33:22;18.10;99.90
41324;DHT22;27073;51.128;4.220;2022-10-17T06:35:55;18.20;99.90
41324;DHT22;27073;51.128;4.220;2022-10-17T06:38:22;18.10;99.90
41324;DHT22;27073;51.128;4.220;2022-10-17T06:40:51;18.10;99.90
41324;DHT22;27073;51.128;4.220;2022-10-17T06:43:19;18.10;99.90
41324;DHT22;27073;51.128;4.220;2022-10-17T06:45:55;17.90;99.90
41324;DHT22;27073;51.128;4.220;2022-10-17T06:48:30;17.80;99.90
41324;DHT22;27073;51.128;4.220;2022-10-17T06:51:22;17.60;99.90
41324;DHT22;27073;51.128;4.220;2022-10-17T06:53:53;17.40;99.90
41324;DHT22;27073;51.128;4.220;2022-10-17T06:56:37;17.20;99.90
41324;DHT22;27073;51.128;4.220;2022-10-17T06:59:21;17.00;99.90
41324;DHT22;27073;51.128;4.220;2022-10-17T07:02:09;17.00;99.90
41324;DHT22;27073;51.128;4.220;2022-10-17T07:04:36;17.00;99.90
41324;DHT22;27073;51.128;4.220;2022-10-17T07:07:02;17.00;99.90
41324;DHT22;27073;51.128;4.220;2022-10-17T07:09:30;17.10;99.90
41324;DHT22;27073;51.128;4.220;2022-10-17T07:11:58;17.00;99.90
41324;DHT22;27073;51.128;4.220;2022-10-17T07:14:24;17.00;99.90
41324;DHT22;27073;51.128;4.220;2022-10-17T07:16:57;16.90;99.90
41324;DHT22;27073;51.128;4.220;2022-10-17T07:19:26;16.90;99.90
41324;DHT22;27073;51.128;4.220;2022-10-17T07:21:52;16.90;99.90
41324;DHT22;27073;51.128;4.220;2022-10-17T07:24:18;16.90;99.90
41324;DHT22;27073;51.128;4.220;2022-10-17T07:26:47;17.00;99.90
41324;DHT22;27073;51.128;4.220;2022-10-17T07:29:14;17.00;99.90
41324;DHT22;27073;51.128;4.220;2022-10-17T07:31:52;16.90;99.90
41324;DHT22;27073;51.128;4.220;2022-10-17T07:34:18;16.80;99.90
41324;DHT22;27073;51.128;4.220;2022-10-17T07:36:44;16.70;99.90
41324;DHT22;27073;51.128;4.220;2022-10-17T07:39:12;16.60;99.90
41324;DHT22;27073;51.128;4.220;2022-10-17T07:41:38;16.60;99.90
41324;DHT22;27073;51.128;4.220;2022-10-17T07:44:04;16.60;99.90
41324;DHT22;27073;51.128;4.220;2022-10-17T07:46:34;16.60;99.90
41324;DHT22;27073;51.128;4.220;2022-10-17T07:49:00;16.60;99.90
41324;DHT22;27073;51.128;4.220;2022-10-17T07:51:27;16.70;99.90
41324;DHT22;27073;51.128;4.220;2022-10-17T07:53:53;16.70;99.90
41324;DHT22;27073;51.128;4.220;2022-10-17T07:56:19;16.80;99.90
41324;DHT22;27073;51.128;4.220;2022-10-17T07:58:49;16.70;99.90
41324;DHT22;27073;51.128;4.220;2022-10-17T08:01:15;16.70;99.90
41324;DHT22;27073;51.128;4.220;2022-10-17T08:03:46;16.90;99.90
41324;DHT22;27073;51.128;4.220;2022-10-17T08:06:13;16.70;99.90
41324;DHT22;27073;51.128;4.220;2022-10-17T08:08:40;16.80;99.90
41324;DHT22;27073;51.128;4.220;2022-10-17T08:11:08;16.90;99.90
41324;DHT22;27073;51.128;4.220;2022-10-17T08:13:35;16.80;99.90
41324;DHT22;27073;51.128;4.220;2022-10-17T08:16:03;16.90;99.90
41324;DHT22;27073;51.128;4.220;2022-10-17T08:18:29;16.90;99.90
41324;DHT22;27073;51.128;4.220;2022-10-17T08:20:58;16.90;99.90
41324;DHT22;27073;51.128;4.220;2022-10-17T08:23:24;16.80;99.90
41324;DHT22;27073;51.128;4.220;2022-10-17T08:25:50;16.70;99.90
41324;DHT22;27073;51.128;4.220;2022-10-17T08:28:16;16.70;99.90
41324;DHT22;27073;51.128;4.220;2022-10-17T08:30:42;16.70;99.90
41324;DHT22;27073;51.128;4.220;2022-10-17T08:33:07;16.70;99.90
41324;DHT22;27073;51.128;4.220;2022-10-17T08:35:33;16.80;99.90
41324;DHT22;27073;51.128;4.220;2022-10-17T08:37:59;17.00;99.90
41324;DHT22;27073;51.128;4.220;2022-10-17T08:40:29;17.10;99.90
41324;DHT22;27073;51.128;4.220;2022-10-17T08:48:22;17.50;99.90
41324;DHT22;27073;51.128;4.220;2022-10-17T08:53:30;17.80;99.90
41324;DHT22;27073;51.128;4.220;2022-10-17T08:55:56;17.90;99.90
41324;DHT22;27073;51.128;4.220;2022-10-17T08:58:31;17.90;99.90
41324;DHT22;27073;51.128;4.220;2022-10-17T09:01:04;17.90;99.90
41324;DHT22;27073;51.128;4.220;2022-10-17T09:06:26;17.70;99.90
41324;DHT22;27073;51.128;4.220;2022-10-17T09:09:12;17.80;99.90
41324;DHT22;27073;51.128;4.220;2022-10-17T09:12:02;17.80;99.90
41324;DHT22;27073;51.128;4.220;2022-10-17T09:20:17;17.50;99.90
41324;DHT22;27073;51.128;4.220;2022-10-17T09:25:25;17.50;99.90
41324;DHT22;27073;51.128;4.220;2022-10-17T09:31:10;17.60;99.90
41324;DHT22;27073;51.128;4.220;2022-10-17T09:33:37;17.70;99.90
41324;DHT22;27073;51.128;4.220;2022-10-17T09:36:09;17.70;99.90
41324;DHT22;27073;51.128;4.220;2022-10-17T09:39:00;17.70;99.90
41324;DHT22;27073;51.128;4.220;2022-10-17T09:41:35;17.70;99.90
41324;DHT22;27073;51.128;4.220;2022-10-17T09:47:02;17.40;99.90
41324;DHT22;27073;51.128;4.220;2022-10-17T09:49:35;17.40;99.90
41324;DHT22;27073;51.128;4.220;2022-10-17T09:52:04;17.30;99.90
41324;DHT22;27073;51.128;4.220;2022-10-17T09:57:17;17.30;99.90
41324;DHT22;27073;51.128;4.220;2022-10-17T09:59:46;17.40;99.90
41324;DHT22;27073;51.128;4.220;2022-10-17T10:04:57;17.40;99.90
41324;DHT22;27073;51.128;4.220;2022-10-17T10:07:25;17.40;99.90
41324;DHT22;27073;51.128;4.220;2022-10-17T10:09:52;17.30;99.90
41324;DHT22;27073;51.128;4.220;2022-10-17T10:12:27;17.40;99.90
41324;DHT22;27073;51.128;4.220;2022-10-17T10:14:54;17.50;99.90
41324;DHT22;27073;51.128;4.220;2022-10-17T10:19:58;17.50;99.90
41324;DHT22;27073;51.128;4.220;2022-10-17T10:22:24;17.50;99.90
41324;DHT22;27073;51.128;4.220;2022-10-17T10:25:13;17.60;99.90
41324;DHT22;27073;51.128;4.220;2022-10-17T10:27:41;17.60;99.90
41324;DHT22;27073;51.128;4.220;2022-10-17T10:30:17;17.60;99.90
41324;DHT22;27073;51.128;4.220;2022-10-17T10:32:46;17.40;99.90
41324;DHT22;27073;51.128;4.220;2022-10-17T10:35:24;17.30;99.90
41324;DHT22;27073;51.128;4.220;2022-10-17T10:37:54;17.30;99.90
41324;DHT22;27073;51.128;4.220;2022-10-17T10:40:22;17.20;99.90
41324;DHT22;27073;51.128;4.220;2022-10-17T10:42:51;17.20;99.90
41324;DHT22;27073;51.128;4.220;2022-10-17T10:47:58;17.40;99.90
41324;DHT22;27073;51.128;4.220;2022-10-17T10:50:27;17.50;99.90
41324;DHT22;27073;51.128;4.220;2022-10-17T10:56:07;17.40;99.90
41324;DHT22;27073;51.128;4.220;2022-10-17T11:01:47;17.50;99.90
41324;DHT22;27073;51.128;4.220;2022-10-17T11:04:36;17.60;99.90
41324;DHT22;27073;51.128;4.220;2022-10-17T11:07:17;17.50;99.90
41324;DHT22;27073;51.128;4.220;2022-10-17T11:15:08;17.70;99.90
41324;DHT22;27073;51.128;4.220;2022-10-17T11:17:44;17.70;99.90
41324;DHT22;27073;51.128;4.220;2022-10-17T11:22:53;17.90;99.90
41324;DHT22;27073;51.128;4.220;2022-10-17T11:25:33;18.10;99.90
41324;DHT22;27073;51.128;4.220;2022-10-17T11:28:00;18.00;99.90
41324;DHT22;27073;51.128;4.220;2022-10-17T11:36:19;17.80;99.90
41324;DHT22;27073;51.128;4.220;2022-10-17T11:39:26;17.90;99.90
41324;DHT22;27073;51.128;4.220;2022-10-17T11:41:54;18.10;99.90
41324;DHT22;27073;51.128;4.220;2022-10-17T11:44:38;18.20;99.90
41324;DHT22;27073;51.128;4.220;2022-10-17T11:47:11;18.20;99.90
41324;DHT22;27073;51.128;4.220;2022-10-17T11:49:41;18.10;99.90
41324;DHT22;27073;51.128;4.220;2022-10-17T11:55:04;18.00;99.90
41324;DHT22;27073;51.128;4.220;2022-10-17T12:00:26;18.10;99.90
41324;DHT22;27073;51.128;4.220;2022-10-17T12:03:24;18.00;99.90
41324;DHT22;27073;51.128;4.220;2022-10-17T12:06:14;18.10;99.90
41324;DHT22;27073;51.128;4.220;2022-10-17T12:16:59;18.40;99.90
41324;DHT22;27073;51.128;4.220;2022-10-17T12:19:43;18.30;99.90
41324;DHT22;27073;51.128;4.220;2022-10-17T12:22:19;18.20;99.90
41324;DHT22;27073;51.128;4.220;2022-10-17T12:25:00;18.20;99.90
41324;DHT22;27073;51.128;4.220;2022-10-17T12:27:46;18.20;99.90
41324;DHT22;27073;51.128;4.220;2022-10-17T12:30:24;18.40;99.90
41324;DHT22;27073;51.128;4.220;2022-10-17T12:35:23;18.60;99.90
41324;DHT22;27073;51.128;4.220;2022-10-17T12:40:46;18.40;99.90
41324;DHT22;27073;51.128;4.220;2022-10-17T12:53:43;18.70;99.90
41324;DHT22;27073;51.128;4.220;2022-10-17T12:56:13;18.70;99.90
41324;DHT22;27073;51.128;4.220;2022-10-17T12:58:45;18.70;99.90
41324;DHT22;27073;51.128;4.220;2022-10-17T13:01:21;18.50;99.90
41324;DHT22;27073;51.128;4.220;2022-10-17T13:03:49;18.60;99.90
41324;DHT22;27073;51.128;4.220;2022-10-17T13:06:26;18.60;99.90
41324;DHT22;27073;51.128;4.220;2022-10-17T13:08:58;18.70;99.90
41324;DHT22;27073;51.128;4.220;2022-10-17T13:11:28;18.70;99.90
41324;DHT22;27073;51.128;4.220;2022-10-17T13:13:57;18.90;99.90
41324;DHT22;27073;51.128;4.220;2022-10-17T13:18:53;18.90;99.90
41324;DHT22;27073;51.128;4.220;2022-10-17T13:21:19;18.90;99.90
41324;DHT22;27073;51.128;4.220;2022-10-17T13:23:45;18.80;99.90
41324;DHT22;27073;51.128;4.220;2022-10-17T13:26:16;19.00;99.90
41324;DHT22;27073;51.128;4.220;2022-10-17T13:28:45;18.90;99.90
41324;DHT22;27073;51.128;4.220;2022-10-17T13:31:35;19.00;99.90
41324;DHT22;27073;51.128;4.220;2022-10-17T13:34:05;18.80;99.90
41324;DHT22;27073;51.128;4.220;2022-10-17T13:36:32;18.80;99.90
41324;DHT22;27073;51.128;4.220;2022-10-17T13:39:03;18.90;99.90
41324;DHT22;27073;51.128;4.220;2022-10-17T13:41:31;19.10;99.90
41324;DHT22;27073;51.128;4.220;2022-10-17T13:44:01;19.00;99.90
41324;DHT22;27073;51.128;4.220;2022-10-17T13:46:32;19.20;99.90
41324;DHT22;27073;51.128;4.220;2022-10-17T13:48:58;19.40;99.90
41324;DHT22;27073;51.128;4.220;2022-10-17T13:51:33;19.60;99.90
41324;DHT22;27073;51.128;4.220;2022-10-17T13:53:59;19.60;99.90
41324;DHT22;27073;51.128;4.220;2022-10-17T13:56:26;19.60;99.90
41324;DHT22;27073;51.128;4.220;2022-10-17T13:58:55;19.70;99.90
41324;DHT22;27073;51.128;4.220;2022-10-17T14:01:25;19.60;99.90
41324;DHT22;27073;51.128;4.220;2022-10-17T14:03:51;19.70;99.90
41324;DHT22;27073;51.128;4.220;2022-10-17T14:06:25;19.80;99.90
41324;DHT22;27073;51.128;4.220;2022-10-17T14:09:20;19.70;99.90
41324;DHT22;27073;51.128;4.220;2022-10-17T14:12:17;19.50;99.90
41324;DHT22;27073;51.128;4.220;2022-10-17T14:14:47;19.30;99.90
41324;DHT22;27073;51.128;4.220;2022-10-17T14:17:16;19.30;99.90
41324;DHT22;27073;51.128;4.220;2022-10-17T14:19:45;19.30;99.90
41324;DHT22;27073;51.128;4.220;2022-10-17T14:22:23;19.40;99.90
41324;DHT22;27073;51.128;4.220;2022-10-17T14:24:50;19.50;99.90
41324;DHT22;27073;51.128;4.220;2022-10-17T14:27:32;19.60;99.90
41324;DHT22;27073;51.128;4.220;2022-10-17T14:30:02;19.80;99.90
41324;DHT22;27073;51.128;4.220;2022-10-17T14:32:31;19.90;99.90
41324;DHT22;27073;51.128;4.220;2022-10-17T14:34:59;19.80;99.90
41324;DHT22;27073;51.128;4.220;2022-10-17T14:37:44;19.70;99.90
41324;DHT22;27073;51.128;4.220;2022-10-17T14:40:24;19.60;99.90
41324;DHT22;27073;51.128;4.220;2022-10-17T14:42:56;19.60;99.90
41324;DHT22;27073;51.128;4.220;2022-10-17T14:47:52;19.40;99.90
41324;DHT22;27073;51.128;4.220;2022-10-17T14:50:25;19.30;99.90
41324;DHT22;27073;51.128;4.220;2022-10-17T14:53:18;19.40;99.90
41324;DHT22;27073;51.128;4.220;2022-10-17T14:55:56;19.40;99.90
41324;DHT22;27073;51.128;4.220;2022-10-17T14:58:31;19.40;99.90
41324;DHT22;27073;51.128;4.220;2022-10-17T15:00:57;19.30;99.90
41324;DHT22;27073;51.128;4.220;2022-10-17T15:03:24;19.40;99.90
41324;DHT22;27073;51.128;4.220;2022-10-17T15:05:51;19.30;99.90
41324;DHT22;27073;51.128;4.220;2022-10-17T15:08:19;19.10;99.90
41324;DHT22;27073;51.128;4.220;2022-10-17T15:10:46;19.20;99.90
41324;DHT22;27073;51.128;4.220;2022-10-17T15:13:12;19.00;99.90
41324;DHT22;27073;51.128;4.220;2022-10-17T15:15:39;19.30;99.90
41324;DHT22;27073;51.128;4.220;2022-10-17T15:18:06;19.30;99.90
41324;DHT22;27073;51.128;4.220;2022-10-17T15:20:34;19.40;99.90
41324;DHT22;27073;51.128;4.220;2022-10-17T15:23:01;19.50;99.90
41324;DHT22;27073;51.128;4.220;2022-10-17T15:25:28;19.50;99.90
41324;DHT22;27073;51.128;4.220;2022-10-17T15:27:55;19.30;99.90
41324;DHT22;27073;51.128;4.220;2022-10-17T15:30:33;19.40;99.90
41324;DHT22;27073;51.128;4.220;2022-10-17T15:33:00;19.30;99.90
41324;DHT22;27073;51.128;4.220;2022-10-17T15:35:26;19.20;99.90
41324;DHT22;27073;51.128;4.220;2022-10-17T15:37:53;19.20;99.90
41324;DHT22;27073;51.128;4.220;2022-10-17T15:40:22;19.20;99.90
41324;DHT22;27073;51.128;4.220;2022-10-17T15:42:49;19.30;99.90
41324;DHT22;27073;51.128;4.220;2022-10-17T15:45:17;19.40;99.90
41324;DHT22;27073;51.128;4.220;2022-10-17T15:47:49;19.40;99.90
41324;DHT22;27073;51.128;4.220;2022-10-17T15:50:16;19.40;99.90
41324;DHT22;27073;51.128;4.220;2022-10-17T15:52:42;19.60;99.90
41324;DHT22;27073;51.128;4.220;2022-10-17T15:55:09;19.60;99.90
41324;DHT22;27073;51.128;4.220;2022-10-17T15:57:38;19.40;99.90
41324;DHT22;27073;51.128;4.220;2022-10-17T16:00:20;19.20;99.90
41324;DHT22;27073;51.128;4.220;2022-10-17T16:02:47;19.00;99.90
41324;DHT22;27073;51.128;4.220;2022-10-17T16:05:19;19.00;99.90
41324;DHT22;27073;51.128;4.220;2022-10-17T16:07:48;19.00;99.90
41324;DHT22;27073;51.128;4.220;2022-10-17T16:10:15;19.20;99.90
41324;DHT22;27073;51.128;4.220;2022-10-17T16:12:41;19.40;99.90
41324;DHT22;27073;51.128;4.220;2022-10-17T16:15:18;19.40;99.90
41324;DHT22;27073;51.128;4.220;2022-10-17T16:17:44;19.50;99.90
41324;DHT22;27073;51.128;4.220;2022-10-17T16:20:11;19.40;99.90
41324;DHT22;27073;51.128;4.220;2022-10-17T16:22:38;19.40;99.90
41324;DHT22;27073;51.128;4.220;2022-10-17T16:25:28;19.50;99.90
41324;DHT22;27073;51.128;4.220;2022-10-17T16:27:56;19.50;99.90
41324;DHT22;27073;51.128;4.220;2022-10-17T16:30:23;19.60;99.90
41324;DHT22;27073;51.128;4.220;2022-10-17T16:32:51;19.70;99.90
41324;DHT22;27073;51.128;4.220;2022-10-17T16:35:24;19.50;99.90
41324;DHT22;27073;51.128;4.220;2022-10-17T16:37:50;19.50;99.90
41324;DHT22;27073;51.128;4.220;2022-10-17T16:40:16;19.60;99.90
41324;DHT22;27073;51.128;4.220;2022-10-17T16:42:42;19.50;99.90
41324;DHT22;27073;51.128;4.220;2022-10-17T16:45:07;19.30;99.90
41324;DHT22;27073;51.128;4.220;2022-10-17T16:47:34;19.20;99.90
41324;DHT22;27073;51.128;4.220;2022-10-17T16:50:00;19.00;99.90
41324;DHT22;27073;51.128;4.220;2022-10-17T16:52:26;18.90;99.90
41324;DHT22;27073;51.128;4.220;2022-10-17T16:54:51;18.70;99.90
41324;DHT22;27073;51.128;4.220;2022-10-17T16:57:17;18.60;99.90
41324;DHT22;27073;51.128;4.220;2022-10-17T16:59:43;18.60;99.90
41324;DHT22;27073;51.128;4.220;2022-10-17T17:02:10;18.70;99.90
41324;DHT22;27073;51.128;4.220;2022-10-17T17:04:36;18.80;99.90
41324;DHT22;27073;51.128;4.220;2022-10-17T17:07:01;18.80;99.90
41324;DHT22;27073;51.128;4.220;2022-10-17T17:09:27;18.70;99.90
41324;DHT22;27073;51.128;4.220;2022-10-17T17:11:53;18.70;99.90
41324;DHT22;27073;51.128;4.220;2022-10-17T17:14:19;18.80;99.90
41324;DHT22;27073;51.128;4.220;2022-10-17T17:16:44;18.80;99.90
41324;DHT22;27073;51.128;4.220;2022-10-17T17:19:12;18.90;99.90
41324;DHT22;27073;51.128;4.220;2022-10-17T17:21:39;18.80;99.90
41324;DHT22;27073;51.128;4.220;2022-10-17T17:24:05;19.00;99.90
41324;DHT22;27073;51.128;4.220;2022-10-17T17:26:32;19.00;99.90
41324;DHT22;27073;51.128;4.220;2022-10-17T17:29:02;18.80;99.90
41324;DHT22;27073;51.128;4.220;2022-10-17T17:31:30;18.80;99.90
41324;DHT22;27073;51.128;4.220;2022-10-17T17:33:56;18.90;99.90
41324;DHT22;27073;51.128;4.220;2022-10-17T17:36:25;19.10;99.90
41324;DHT22;27073;51.128;4.220;2022-10-17T17:38:54;19.10;99.90
41324;DHT22;27073;51.128;4.220;2022-10-17T17:41:20;18.90;99.90
41324;DHT22;27073;51.128;4.220;2022-10-17T17:43:47;19.00;99.90
41324;DHT22;27073;51.128;4.220;2022-10-17T17:46:15;19.00;99.90
41324;DHT22;27073;51.128;4.220;2022-10-17T17:48:41;19.00;99.90
41324;DHT22;27073;51.128;4.220;2022-10-17T17:51:10;18.90;99.90
41324;DHT22;27073;51.128;4.220;2022-10-17T17:53:36;19.00;99.90